sensor_id;sensor_type;location;lat;lon;timestamp;pressure;altitude;pressure_sealevel;temperature;humidity
49315;BME280;36672;50.710;12.498;2023-01-31T00:01:20;98672.66;;;2.07;78.43
49315;BME280;36672;50.710;12.498;2023-01-31T00:03:46;98699.06;;;2.10;78.98
49315;BME280;36672;50.710;12.498;2023-01-31T00:08:40;98696.53;;;1.99;79.60
49315;BME280;36672;50.710;12.498;2023-01-31T00:11:06;98696.13;;;1.94;80.22
49315;BME280;36672;50.710;12.498;2023-01-31T00:13:32;98683.50;;;1.86;80.64
49315;BME280;36672;50.710;12.498;2023-01-31T00:15:57;98691.50;;;1.86;81.15
49315;BME280;36672;50.710;12.498;2023-01-31T00:18:23;98692.31;;;1.77;81.75
49315;BME280;36672;50.710;12.498;2023-01-31T00:20:48;98685.44;;;1.65;81.85
49315;BME280;36672;50.710;12.498;2023-01-31T00:23:13;98679.56;;;1.61;81.97
49315;BME280;36672;50.710;12.498;2023-01-31T00:25:39;98709.69;;;1.61;82.64
49315;BME280;36672;50.710;12.498;2023-01-31T00:28:04;98706.59;;;1.56;82.55
49315;BME280;36672;50.710;12.498;2023-01-31T00:30:30;98701.25;;;1.46;83.25
49315;BME280;36672;50.710;12.498;2023-01-31T00:32:55;98706.44;;;1.48;82.96
49315;BME280;36672;50.710;12.498;2023-01-31T00:35:20;98684.41;;;1.36;83.23
49315;BME280;36672;50.710;12.498;2023-01-31T00:37:46;98679.09;;;1.36;83.28
49315;BME280;36672;50.710;12.498;2023-01-31T00:40:11;98678.91;;;1.28;83.43
49315;BME280;36672;50.710;12.498;2023-01-31T00:42:36;98703.75;;;1.38;83.43
49315;BME280;36672;50.710;12.498;2023-01-31T00:45:02;98687.75;;;1.28;83.38
49315;BME280;36672;50.710;12.498;2023-01-31T00:47:27;98705.31;;;1.41;83.14
49315;BME280;36672;50.710;12.498;2023-01-31T00:49:53;98705.41;;;1.39;83.20
49315;BME280;36672;50.710;12.498;2023-01-31T00:52:18;98712.75;;;1.47;83.21
49315;BME280;36672;50.710;12.498;2023-01-31T00:54:43;98715.84;;;1.52;82.70
49315;BME280;36672;50.710;12.498;2023-01-31T00:57:09;98694.66;;;1.51;82.51
49315;BME280;36672;50.710;12.498;2023-01-31T00:59:34;98710.41;;;1.63;82.22
49315;BME280;36672;50.710;12.498;2023-01-31T01:01:59;98715.44;;;1.67;82.18
49315;BME280;36672;50.710;12.498;2023-01-31T01:04:25;98706.19;;;1.61;81.87
49315;BME280;36672;50.710;12.498;2023-01-31T01:06:50;98715.28;;;1.68;81.73
49315;BME280;36672;50.710;12.498;2023-01-31T01:09:16;98720.63;;;1.68;81.59
49315;BME280;36672;50.710;12.498;2023-01-31T01:11:41;98724.84;;;1.61;81.50
49315;BME280;36672;50.710;12.498;2023-01-31T01:14:07;98736.59;;;1.68;81.86
49315;BME280;36672;50.710;12.498;2023-01-31T01:16:35;98734.66;;;1.70;81.81
49315;BME280;36672;50.710;12.498;2023-01-31T01:19:03;98737.47;;;1.69;81.80
49315;BME280;36672;50.710;12.498;2023-01-31T01:21:30;98740.97;;;1.69;81.61
49315;BME280;36672;50.710;12.498;2023-01-31T01:23:58;98741.09;;;1.68;81.97
49315;BME280;36672;50.710;12.498;2023-01-31T01:26:27;98741.66;;;1.61;82.31
49315;BME280;36672;50.710;12.498;2023-01-31T01:28:53;98748.66;;;1.62;82.40
49315;BME280;36672;50.710;12.498;2023-01-31T01:31:19;98746.38;;;1.48;82.49
49315;BME280;36672;50.710;12.498;2023-01-31T01:33:46;98753.97;;;1.53;83.06
49315;BME280;36672;50.710;12.498;2023-01-31T01:36:15;98749.47;;;1.53;83.04
49315;BME280;36672;50.710;12.498;2023-01-31T01:38:41;98746.38;;;1.48;83.05
49315;BME280;36672;50.710;12.498;2023-01-31T01:41:07;98736.97;;;1.44;83.00
49315;BME280;36672;50.710;12.498;2023-01-31T01:51:31;98771.88;;;1.51;83.84
49315;BME280;36672;50.710;12.498;2023-01-31T01:53:59;98781.13;;;1.46;84.36
49315;BME280;36672;50.710;12.498;2023-01-31T01:56:31;98788.41;;;1.44;84.51
49315;BME280;36672;50.710;12.498;2023-01-31T01:59:17;98779.97;;;1.39;84.80
49315;BME280;36672;50.710;12.498;2023-01-31T02:01:45;98793.75;;;1.44;85.04
49315;BME280;36672;50.710;12.498;2023-01-31T02:04:19;98793.25;;;1.29;85.18
49315;BME280;36672;50.710;12.498;2023-01-31T02:06:46;98799.16;;;1.33;85.24
49315;BME280;36672;50.710;12.498;2023-01-31T02:09:28;98796.38;;;1.35;85.68
49315;BME280;36672;50.710;12.498;2023-01-31T02:11:57;98783.59;;;1.28;85.82
49315;BME280;36672;50.710;12.498;2023-01-31T02:14:23;98796.91;;;1.28;85.70
49315;BME280;36672;50.710;12.498;2023-01-31T02:16:49;98795.59;;;1.23;86.21
49315;BME280;36672;50.710;12.498;2023-01-31T02:19:44;98799.41;;;1.30;86.37
49315;BME280;36672;50.710;12.498;2023-01-31T02:31:00;98816.25;;;1.30;86.40
49315;BME280;36672;50.710;12.498;2023-01-31T02:39:16;98827.19;;;1.37;85.96
49315;BME280;36672;50.710;12.498;2023-01-31T02:44:55;98829.06;;;1.46;85.29
49315;BME280;36672;50.710;12.498;2023-01-31T02:50:26;98832.00;;;1.53;85.05
49315;BME280;36672;50.710;12.498;2023-01-31T02:52:58;98833.00;;;1.52;84.82
49315;BME280;36672;50.710;12.498;2023-01-31T02:55:42;98834.38;;;1.46;84.56
49315;BME280;36672;50.710;12.498;2023-01-31T02:58:30;98837.75;;;1.49;84.75
49315;BME280;36672;50.710;12.498;2023-01-31T03:00:57;98837.75;;;1.49;84.26
49315;BME280;36672;50.710;12.498;2023-01-31T03:03:27;98843.63;;;1.42;84.35
49315;BME280;36672;50.710;12.498;2023-01-31T03:11:37;98855.81;;;1.45;83.68
49315;BME280;36672;50.710;12.498;2023-01-31T03:14:18;98860.56;;;1.41;83.53
49315;BME280;36672;50.710;12.498;2023-01-31T03:17:03;98875.19;;;1.47;83.47
49315;BME280;36672;50.710;12.498;2023-01-31T03:22:33;98885.41;;;1.52;83.15
49315;BME280;36672;50.710;12.498;2023-01-31T03:25:01;98875.03;;;1.49;82.69
49315;BME280;36672;50.710;12.498;2023-01-31T03:27:29;98869.84;;;1.47;82.60
49315;BME280;36672;50.710;12.498;2023-01-31T03:29:59;98885.69;;;1.49;82.35
49315;BME280;36672;50.710;12.498;2023-01-31T03:32:32;98885.41;;;1.52;82.17
49315;BME280;36672;50.710;12.498;2023-01-31T03:34:59;98905.34;;;1.57;81.90
49315;BME280;36672;50.710;12.498;2023-01-31T03:37:42;98887.38;;;1.50;81.36
49315;BME280;36672;50.710;12.498;2023-01-31T03:40:31;98911.50;;;1.58;81.12
49315;BME280;36672;50.710;12.498;2023-01-31T03:43:11;98914.47;;;1.65;81.50
49315;BME280;36672;50.710;12.498;2023-01-31T03:45:47;98908.75;;;1.69;81.29
49315;BME280;36672;50.710;12.498;2023-01-31T03:48:15;98905.97;;;1.71;80.93
49315;BME280;36672;50.710;12.498;2023-01-31T03:50:55;98911.56;;;1.68;80.33
49315;BME280;36672;50.710;12.498;2023-01-31T03:53:33;98910.59;;;1.69;80.57
49315;BME280;36672;50.710;12.498;2023-01-31T03:56:03;98914.91;;;1.70;80.31
49315;BME280;36672;50.710;12.498;2023-01-31T03:58:34;98918.31;;;1.72;80.32
49315;BME280;36672;50.710;12.498;2023-01-31T04:01:04;98915.06;;;1.68;79.76
49315;BME280;36672;50.710;12.498;2023-01-31T04:03:35;98910.47;;;1.70;80.30
49315;BME280;36672;50.710;12.498;2023-01-31T04:06:03;98906.94;;;1.70;80.34
49315;BME280;36672;50.710;12.498;2023-01-31T04:08:30;98917.34;;;1.73;80.84
49315;BME280;36672;50.710;12.498;2023-01-31T04:10:57;98918.16;;;1.73;80.83
49315;BME280;36672;50.710;12.498;2023-01-31T04:13:23;98910.00;;;1.65;80.95
49315;BME280;36672;50.710;12.498;2023-01-31T04:15:48;98920.66;;;1.65;81.16
49315;BME280;36672;50.710;12.498;2023-01-31T04:18:13;98900.28;;;1.54;80.87
49315;BME280;36672;50.710;12.498;2023-01-31T04:20:38;98913.22;;;1.59;80.93
49315;BME280;36672;50.710;12.498;2023-01-31T04:23:04;98919.94;;;1.63;80.83
49315;BME280;36672;50.710;12.498;2023-01-31T04:25:29;98916.03;;;1.67;80.92
49315;BME280;36672;50.710;12.498;2023-01-31T04:27:54;98901.88;;;1.67;80.97
49315;BME280;36672;50.710;12.498;2023-01-31T04:30:20;98897.81;;;1.62;80.98
49315;BME280;36672;50.710;12.498;2023-01-31T04:32:45;98900.06;;;1.67;80.90
49315;BME280;36672;50.710;12.498;2023-01-31T04:35:11;98893.59;;;1.60;81.03
49315;BME280;36672;50.710;12.498;2023-01-31T04:37:36;98902.41;;;1.60;81.02
49315;BME280;36672;50.710;12.498;2023-01-31T04:40:01;98894.13;;;1.54;81.20
49315;BME280;36672;50.710;12.498;2023-01-31T04:42:27;98895.38;;;1.50;80.70
49315;BME280;36672;50.710;12.498;2023-01-31T04:44:52;98885.09;;;1.45;80.82
49315;BME280;36672;50.710;12.498;2023-01-31T04:47:18;98878.53;;;1.49;80.82
49315;BME280;36672;50.710;12.498;2023-01-31T04:49:43;98868.31;;;1.44;80.76
49315;BME280;36672;50.710;12.498;2023-01-31T04:52:09;98873.03;;;1.41;80.94
49315;BME280;36672;50.710;12.498;2023-01-31T04:54:35;98878.69;;;1.48;81.09
49315;BME280;36672;50.710;12.498;2023-01-31T04:57:01;98897.47;;;1.56;80.83
49315;BME280;36672;50.710;12.498;2023-01-31T04:59:26;98890.75;;;1.52;80.63
49315;BME280;36672;50.710;12.498;2023-01-31T05:01:51;98873.03;;;1.41;80.24
49315;BME280;36672;50.710;12.498;2023-01-31T05:04:17;98879.19;;;1.41;80.25
49315;BME280;36672;50.710;12.498;2023-01-31T05:06:42;98888.44;;;1.37;80.32
49315;BME280;36672;50.710;12.498;2023-01-31T05:09:07;98894.28;;;1.31;80.20
49315;BME280;36672;50.710;12.498;2023-01-31T05:11:33;98895.91;;;1.22;80.21
49315;BME280;36672;50.710;12.498;2023-01-31T05:13:58;98904.28;;;1.18;80.40
49315;BME280;36672;50.710;12.498;2023-01-31T05:16:24;98904.41;;;1.16;80.42
49315;BME280;36672;50.710;12.498;2023-01-31T05:18:49;98914.81;;;1.19;80.48
49315;BME280;36672;50.710;12.498;2023-01-31T05:21:15;98920.00;;;1.21;80.32
49315;BME280;36672;50.710;12.498;2023-01-31T05:23:40;98928.69;;;1.23;80.68
49315;BME280;36672;50.710;12.498;2023-01-31T05:26:05;98911.66;;;1.14;80.29
49315;BME280;36672;50.710;12.498;2023-01-31T05:28:31;98929.63;;;1.33;79.86
49315;BME280;36672;50.710;12.498;2023-01-31T05:31:05;98925.84;;;1.36;80.01
49315;BME280;36672;50.710;12.498;2023-01-31T05:33:31;98933.88;;;1.45;79.75
49315;BME280;36672;50.710;12.498;2023-01-31T05:35:58;98932.91;;;1.46;79.23
49315;BME280;36672;50.710;12.498;2023-01-31T05:38:23;98922.25;;;1.46;79.16
49315;BME280;36672;50.710;12.498;2023-01-31T05:40:49;98925.50;;;1.50;79.42
49315;BME280;36672;50.710;12.498;2023-01-31T05:43:15;98928.28;;;1.49;79.11
49315;BME280;36672;50.710;12.498;2023-01-31T05:45:40;98925.78;;;1.47;78.99
49315;BME280;36672;50.710;12.498;2023-01-31T05:48:06;98919.34;;;1.50;79.06
49315;BME280;36672;50.710;12.498;2023-01-31T05:50:31;98922.00;;;1.50;78.77
49315;BME280;36672;50.710;12.498;2023-01-31T05:52:58;98924.25;;;1.54;78.73
49315;BME280;36672;50.710;12.498;2023-01-31T05:55:24;98924.25;;;1.54;78.31
49315;BME280;36672;50.710;12.498;2023-01-31T05:57:51;98897.13;;;1.39;78.38
49315;BME280;36672;50.710;12.498;2023-01-31T06:00:17;98923.03;;;1.58;78.24
49315;BME280;36672;50.710;12.498;2023-01-31T06:02:43;98931.72;;;1.60;77.85
49315;BME280;36672;50.710;12.498;2023-01-31T06:05:08;98928.59;;;1.55;77.72
49315;BME280;36672;50.710;12.498;2023-01-31T06:07:34;98928.59;;;1.55;77.46
49315;BME280;36672;50.710;12.498;2023-01-31T06:09:59;98935.78;;;1.65;77.42
49315;BME280;36672;50.710;12.498;2023-01-31T06:12:25;98931.19;;;1.67;77.45
49315;BME280;36672;50.710;12.498;2023-01-31T06:14:50;98938.06;;;1.69;77.17
49315;BME280;36672;50.710;12.498;2023-01-31T06:17:16;98919.94;;;1.63;77.01
49315;BME280;36672;50.710;12.498;2023-01-31T06:19:41;98943.84;;;1.74;76.77
49315;BME280;36672;50.710;12.498;2023-01-31T06:22:07;98946.34;;;1.76;76.22
49315;BME280;36672;50.710;12.498;2023-01-31T06:24:32;98952.56;;;1.76;76.30
49315;BME280;36672;50.710;12.498;2023-01-31T06:26:58;98947.09;;;1.78;76.23
49315;BME280;36672;50.710;12.498;2023-01-31T06:29:23;98943.69;;;1.76;76.05
49315;BME280;36672;50.710;12.498;2023-01-31T06:31:48;98941.63;;;1.79;75.71
49315;BME280;36672;50.710;12.498;2023-01-31T06:34:18;98951.03;;;1.84;75.61
49315;BME280;36672;50.710;12.498;2023-01-31T06:36:43;98954.25;;;1.87;75.44
49315;BME280;36672;50.710;12.498;2023-01-31T06:39:10;98954.56;;;1.84;75.08
49315;BME280;36672;50.710;12.498;2023-01-31T06:41:35;98954.56;;;1.84;74.78
49315;BME280;36672;50.710;12.498;2023-01-31T06:44:01;98948.34;;;1.74;74.38
49315;BME280;36672;50.710;12.498;2023-01-31T06:46:26;98960.31;;;1.89;74.31
49315;BME280;36672;50.710;12.498;2023-01-31T06:48:52;98951.22;;;1.92;74.11
49315;BME280;36672;50.710;12.498;2023-01-31T06:51:17;98960.63;;;1.96;74.36
49315;BME280;36672;50.710;12.498;2023-01-31T06:53:42;98953.88;;;1.92;73.89
49315;BME280;36672;50.710;12.498;2023-01-31T06:56:08;98949.81;;;1.88;73.40
49315;BME280;36672;50.710;12.498;2023-01-31T06:58:34;98963.88;;;2.00;73.18
49315;BME280;36672;50.710;12.498;2023-01-31T07:01:04;98988.28;;;2.05;72.71
49315;BME280;36672;50.710;12.498;2023-01-31T07:03:29;98986.50;;;2.05;73.09
49315;BME280;36672;50.710;12.498;2023-01-31T07:05:55;98990.13;;;2.04;72.52
49315;BME280;36672;50.710;12.498;2023-01-31T07:08:20;99001.22;;;2.09;72.48
49315;BME280;36672;50.710;12.498;2023-01-31T07:10:47;98987.59;;;2.03;72.66
49315;BME280;36672;50.710;12.498;2023-01-31T07:13:12;98986.50;;;2.05;72.29
49315;BME280;36672;50.710;12.498;2023-01-31T07:15:37;98997.59;;;2.10;72.19
49315;BME280;36672;50.710;12.498;2023-01-31T07:18:03;98997.59;;;2.10;72.12
49315;BME280;36672;50.710;12.498;2023-01-31T07:20:28;98985.94;;;2.11;72.01
49315;BME280;36672;50.710;12.498;2023-01-31T07:22:58;98995.66;;;2.22;72.27
49315;BME280;36672;50.710;12.498;2023-01-31T07:25:24;99000.47;;;2.28;71.63
49315;BME280;36672;50.710;12.498;2023-01-31T07:27:49;99002.44;;;2.36;71.40
49315;BME280;36672;50.710;12.498;2023-01-31T07:30:15;98993.47;;;2.37;71.33
49315;BME280;36672;50.710;12.498;2023-01-31T07:32:40;98997.41;;;2.43;71.52
49315;BME280;36672;50.710;12.498;2023-01-31T07:35:06;98990.13;;;2.45;71.16
49315;BME280;36672;50.710;12.498;2023-01-31T07:37:32;98970.59;;;2.35;70.74
49315;BME280;36672;50.710;12.498;2023-01-31T07:39:57;98978.47;;;2.46;71.15
49315;BME280;36672;50.710;12.498;2023-01-31T07:42:22;98991.38;;;2.51;71.17
49315;BME280;36672;50.710;12.498;2023-01-31T07:44:47;98969.19;;;2.40;71.06
49315;BME280;36672;50.710;12.498;2023-01-31T07:47:13;98977.22;;;2.50;70.75
49315;BME280;36672;50.710;12.498;2023-01-31T07:49:38;98976.69;;;2.56;70.20
49315;BME280;36672;50.710;12.498;2023-01-31T07:52:04;98991.03;;;2.65;70.45
49315;BME280;36672;50.710;12.498;2023-01-31T07:54:29;99001.56;;;2.76;70.46
49315;BME280;36672;50.710;12.498;2023-01-31T07:56:54;98978.81;;;2.72;69.76
49315;BME280;36672;50.710;12.498;2023-01-31T07:59:20;98983.72;;;2.77;69.66
49315;BME280;36672;50.710;12.498;2023-01-31T08:01:45;98980.47;;;2.73;68.91
49315;BME280;36672;50.710;12.498;2023-01-31T08:04:29;98979.78;;;2.71;69.23
49315;BME280;36672;50.710;12.498;2023-01-31T08:06:54;98969.94;;;2.72;69.01
49315;BME280;36672;50.710;12.498;2023-01-31T08:09:21;98980.66;;;2.82;68.92
49315;BME280;36672;50.710;12.498;2023-01-31T08:11:47;98973.22;;;2.85;68.69
49315;BME280;36672;50.710;12.498;2023-01-31T08:14:13;98966.63;;;2.99;68.91
49315;BME280;36672;50.710;12.498;2023-01-31T08:16:38;98958.88;;;3.16;68.11
49315;BME280;36672;50.710;12.498;2023-01-31T08:19:04;98961.22;;;3.48;67.62
49315;BME280;36672;50.710;12.498;2023-01-31T08:21:29;98965.97;;;3.74;66.60
49315;BME280;36672;50.710;12.498;2023-01-31T08:23:55;98945.25;;;3.76;66.06
49315;BME280;36672;50.710;12.498;2023-01-31T08:26:20;98971.50;;;4.00;65.81
49315;BME280;36672;50.710;12.498;2023-01-31T08:28:49;98950.78;;;4.02;65.50
49315;BME280;36672;50.710;12.498;2023-01-31T08:31:20;98965.09;;;4.21;64.84
49315;BME280;36672;50.710;12.498;2023-01-31T08:33:46;98963.53;;;4.18;64.98
49315;BME280;36672;50.710;12.498;2023-01-31T08:36:16;98971.56;;;4.18;64.04
49315;BME280;36672;50.710;12.498;2023-01-31T08:38:42;98949.50;;;4.06;64.55
49315;BME280;36672;50.710;12.498;2023-01-31T08:41:09;98962.28;;;4.13;63.36
49315;BME280;36672;50.710;12.498;2023-01-31T08:43:35;98965.66;;;4.15;64.41
49315;BME280;36672;50.710;12.498;2023-01-31T08:46:03;98957.34;;;4.18;64.27
49315;BME280;36672;50.710;12.498;2023-01-31T08:48:35;98952.88;;;4.08;63.86
49315;BME280;36672;50.710;12.498;2023-01-31T08:51:03;98911.22;;;3.78;63.44
49315;BME280;36672;50.710;12.498;2023-01-31T08:53:29;98956.28;;;4.01;63.20
49315;BME280;36672;50.710;12.498;2023-01-31T08:56:02;98962.34;;;4.03;62.75
49315;BME280;36672;50.710;12.498;2023-01-31T08:58:30;98960.94;;;3.99;62.19
49315;BME280;36672;50.710;12.498;2023-01-31T09:01:00;98960.50;;;4.03;63.49
49315;BME280;36672;50.710;12.498;2023-01-31T09:03:26;98952.56;;;4.12;63.38
49315;BME280;36672;50.710;12.498;2023-01-31T09:05:51;98961.16;;;4.15;63.52
49315;BME280;36672;50.710;12.498;2023-01-31T09:08:16;98949.66;;;4.05;63.26
49315;BME280;36672;50.710;12.498;2023-01-31T09:10:42;98966.50;;;4.15;62.49
49315;BME280;36672;50.710;12.498;2023-01-31T09:13:07;98945.22;;;3.86;62.59
49315;BME280;36672;50.710;12.498;2023-01-31T09:15:32;98950.88;;;3.83;63.74
49315;BME280;36672;50.710;12.498;2023-01-31T09:17:58;98934.16;;;3.71;63.23
49315;BME280;36672;50.710;12.498;2023-01-31T09:20:23;98948.88;;;3.85;63.06
49315;BME280;36672;50.710;12.498;2023-01-31T09:22:48;98943.13;;;3.89;63.03
49315;BME280;36672;50.710;12.498;2023-01-31T09:25:14;98944.91;;;3.99;62.29
49315;BME280;36672;50.710;12.498;2023-01-31T09:27:39;98939.28;;;4.02;62.55
49315;BME280;36672;50.710;12.498;2023-01-31T09:30:06;98932.47;;;4.07;62.14
49315;BME280;36672;50.710;12.498;2023-01-31T09:32:32;98929.75;;;4.17;61.94
49315;BME280;36672;50.710;12.498;2023-01-31T09:34:58;98929.22;;;4.14;61.66
49315;BME280;36672;50.710;12.498;2023-01-31T09:37:23;98927.09;;;4.17;61.94
49315;BME280;36672;50.710;12.498;2023-01-31T09:39:49;98933.38;;;4.26;61.83
49315;BME280;36672;50.710;12.498;2023-01-31T09:45:02;98922.44;;;4.19;61.42
49315;BME280;36672;50.710;12.498;2023-01-31T09:47:44;98923.59;;;4.17;60.21
49315;BME280;36672;50.710;12.498;2023-01-31T09:50:19;98925.63;;;4.23;60.65
49315;BME280;36672;50.710;12.498;2023-01-31T09:52:46;98919.84;;;4.28;61.67
49315;BME280;36672;50.710;12.498;2023-01-31T09:55:17;98917.03;;;4.29;61.27
49315;BME280;36672;50.710;12.498;2023-01-31T10:00:17;98904.72;;;4.36;60.88
49315;BME280;36672;50.710;12.498;2023-01-31T10:06:07;98887.34;;;4.04;59.86
49315;BME280;36672;50.710;12.498;2023-01-31T10:08:58;98899.91;;;4.22;60.38
49315;BME280;36672;50.710;12.498;2023-01-31T10:11:33;98898.41;;;4.37;61.04
49315;BME280;36672;50.710;12.498;2023-01-31T10:14:12;98889.13;;;4.32;60.64
49315;BME280;36672;50.710;12.498;2023-01-31T10:17:02;98893.03;;;4.37;60.63
49315;BME280;36672;50.710;12.498;2023-01-31T10:19:54;98875.16;;;4.38;60.31
49315;BME280;36672;50.710;12.498;2023-01-31T10:22:38;98871.44;;;4.49;61.02
49315;BME280;36672;50.710;12.498;2023-01-31T10:25:27;98873.88;;;4.60;59.98
49315;BME280;36672;50.710;12.498;2023-01-31T10:27:59;98853.91;;;4.54;60.73
49315;BME280;36672;50.710;12.498;2023-01-31T10:35:55;98852.00;;;4.65;60.52
49315;BME280;36672;50.710;12.498;2023-01-31T10:38:31;98862.56;;;4.66;60.52
49315;BME280;36672;50.710;12.498;2023-01-31T10:41:06;98846.19;;;4.69;60.92
49315;BME280;36672;50.710;12.498;2023-01-31T10:43:37;98840.91;;;4.60;61.05
49315;BME280;36672;50.710;12.498;2023-01-31T10:46:11;98847.72;;;4.72;60.92
49315;BME280;36672;50.710;12.498;2023-01-31T10:48:37;98860.94;;;4.73;61.89
49315;BME280;36672;50.710;12.498;2023-01-31T10:56:33;98868.44;;;4.52;62.23
49315;BME280;36672;50.710;12.498;2023-01-31T10:59:03;98852.47;;;4.60;62.16
49315;BME280;36672;50.710;12.498;2023-01-31T11:01:29;98862.78;;;4.73;62.43
49315;BME280;36672;50.710;12.498;2023-01-31T11:03:56;98867.22;;;4.64;62.24
49315;BME280;36672;50.710;12.498;2023-01-31T11:06:22;98857.94;;;4.40;62.62
49315;BME280;36672;50.710;12.498;2023-01-31T11:09:00;98852.81;;;4.29;63.10
49315;BME280;36672;50.710;12.498;2023-01-31T11:11:27;98855.38;;;4.31;63.72
49315;BME280;36672;50.710;12.498;2023-01-31T11:14:04;98839.16;;;4.14;63.74
49315;BME280;36672;50.710;12.498;2023-01-31T11:16:35;98828.75;;;4.11;64.02
49315;BME280;36672;50.710;12.498;2023-01-31T11:19:33;98820.16;;;4.07;64.23
49315;BME280;36672;50.710;12.498;2023-01-31T11:22:01;98815.81;;;4.06;64.37
49315;BME280;36672;50.710;12.498;2023-01-31T11:24:29;98797.03;;;3.98;64.61
49315;BME280;36672;50.710;12.498;2023-01-31T11:27:08;98789.28;;;3.95;64.73
49315;BME280;36672;50.710;12.498;2023-01-31T11:29:45;98798.09;;;4.05;64.86
49315;BME280;36672;50.710;12.498;2023-01-31T11:32:18;98785.50;;;4.16;64.36
49315;BME280;36672;50.710;12.498;2023-01-31T11:35:00;98779.38;;;4.23;64.44
49315;BME280;36672;50.710;12.498;2023-01-31T11:37:28;98785.56;;;4.24;64.65
49315;BME280;36672;50.710;12.498;2023-01-31T11:42:23;98760.75;;;4.14;65.23
49315;BME280;36672;50.710;12.498;2023-01-31T11:49:59;98745.34;;;4.52;64.06
49315;BME280;36672;50.710;12.498;2023-01-31T11:52:31;98743.16;;;4.47;63.79
49315;BME280;36672;50.710;12.498;2023-01-31T11:55:05;98756.22;;;4.50;64.25
49315;BME280;36672;50.710;12.498;2023-01-31T11:57:34;98760.44;;;4.35;64.89
49315;BME280;36672;50.710;12.498;2023-01-31T12:00:04;98749.44;;;4.20;65.59
49315;BME280;36672;50.710;12.498;2023-01-31T12:04:59;98758.75;;;4.16;65.71
49315;BME280;36672;50.710;12.498;2023-01-31T12:07:29;98767.56;;;4.08;66.12
49315;BME280;36672;50.710;12.498;2023-01-31T12:09:56;98761.94;;;4.01;66.29
49315;BME280;36672;50.710;12.498;2023-01-31T12:12:29;98741.81;;;3.89;66.38
49315;BME280;36672;50.710;12.498;2023-01-31T12:15:03;98752.38;;;3.81;66.70
49315;BME280;36672;50.710;12.498;2023-01-31T12:17:34;98726.63;;;3.62;66.90
49315;BME280;36672;50.710;12.498;2023-01-31T12:20:42;98740.78;;;3.72;67.35
49315;BME280;36672;50.710;12.498;2023-01-31T12:43:03;98670.63;;;3.24;72.61
49315;BME280;36672;50.710;12.498;2023-01-31T12:51:02;98639.03;;;2.91;74.43
49315;BME280;36672;50.710;12.498;2023-01-31T12:53:46;98646.53;;;3.06;74.57
49315;BME280;36672;50.710;12.498;2023-01-31T13:07:18;98598.19;;;3.09;73.72
49315;BME280;36672;50.710;12.498;2023-01-31T13:09:48;98579.59;;;2.99;73.36
49315;BME280;36672;50.710;12.498;2023-01-31T13:12:18;98586.38;;;3.12;73.58
49315;BME280;36672;50.710;12.498;2023-01-31T13:14:51;98589.53;;;3.25;73.01
49315;BME280;36672;50.710;12.498;2023-01-31T13:17:25;98588.47;;;3.36;72.70
49315;BME280;36672;50.710;12.498;2023-01-31T13:19:58;98552.69;;;3.29;72.38
49315;BME280;36672;50.710;12.498;2023-01-31T13:22:35;98567.78;;;3.38;71.82
49315;BME280;36672;50.710;12.498;2023-01-31T13:25:22;98564.94;;;3.39;71.67
49315;BME280;36672;50.710;12.498;2023-01-31T13:28:04;98560.38;;;3.32;71.75
49315;BME280;36672;50.710;12.498;2023-01-31T13:30:41;98550.72;;;3.31;71.53
49315;BME280;36672;50.710;12.498;2023-01-31T13:33:30;98552.13;;;3.25;71.84
49315;BME280;36672;50.710;12.498;2023-01-31T13:36:07;98550.84;;;3.29;71.63
49315;BME280;36672;50.710;12.498;2023-01-31T13:38:40;98558.41;;;3.34;71.57
49315;BME280;36672;50.710;12.498;2023-01-31T13:41:12;98554.09;;;3.23;71.46
49315;BME280;36672;50.710;12.498;2023-01-31T13:43:41;98529.31;;;3.13;71.74
49315;BME280;36672;50.710;12.498;2023-01-31T13:46:08;98543.31;;;3.24;71.62
49315;BME280;36672;50.710;12.498;2023-01-31T13:48:40;98544.56;;;3.20;71.00
49315;BME280;36672;50.710;12.498;2023-01-31T13:53:48;98563.13;;;3.22;70.92
49315;BME280;36672;50.710;12.498;2023-01-31T13:56:23;98555.72;;;3.16;70.90
49315;BME280;36672;50.710;12.498;2023-01-31T13:58:50;98561.81;;;3.08;71.74
49315;BME280;36672;50.710;12.498;2023-01-31T14:01:21;98562.66;;;3.08;71.24
49315;BME280;36672;50.710;12.498;2023-01-31T14:14:54;98549.69;;;2.96;71.37
49315;BME280;36672;50.710;12.498;2023-01-31T14:24:54;98574.44;;;2.88;72.02
49315;BME280;36672;50.710;12.498;2023-01-31T14:27:22;98580.63;;;2.88;72.36
49315;BME280;36672;50.710;12.498;2023-01-31T14:32:40;98577.28;;;2.86;73.24
49315;BME280;36672;50.710;12.498;2023-01-31T14:59:50;98574.88;;;2.55;75.10
49315;BME280;36672;50.710;12.498;2023-01-31T15:02:40;98576.25;;;2.59;75.58
49315;BME280;36672;50.710;12.498;2023-01-31T15:13:47;98585.56;;;2.55;75.39
49315;BME280;36672;50.710;12.498;2023-01-31T15:16:22;98580.53;;;2.52;76.21
49315;BME280;36672;50.710;12.498;2023-01-31T15:21:35;98594.44;;;2.46;77.13
49315;BME280;36672;50.710;12.498;2023-01-31T15:24:01;98570.16;;;2.39;77.16
49315;BME280;36672;50.710;12.498;2023-01-31T15:26:30;98584.44;;;2.48;76.89
49315;BME280;36672;50.710;12.498;2023-01-31T15:28:59;98588.13;;;2.47;77.13
49315;BME280;36672;50.710;12.498;2023-01-31T15:31:34;98577.72;;;2.44;77.26
49315;BME280;36672;50.710;12.498;2023-01-31T15:34:06;98567.66;;;2.38;77.41
49315;BME280;36672;50.710;12.498;2023-01-31T15:36:58;98557.13;;;2.36;77.24
49315;BME280;36672;50.710;12.498;2023-01-31T15:42:26;98562.88;;;2.41;76.56
49315;BME280;36672;50.710;12.498;2023-01-31T15:45:27;98568.44;;;2.48;76.15
49315;BME280;36672;50.710;12.498;2023-01-31T15:48:14;98564.38;;;2.54;76.38
49315;BME280;36672;50.710;12.498;2023-01-31T15:51:13;98563.41;;;2.45;76.07
49315;BME280;36672;50.710;12.498;2023-01-31T15:53:39;98562.69;;;2.53;76.20
49315;BME280;36672;50.710;12.498;2023-01-31T15:56:07;98543.22;;;2.42;76.21
49315;BME280;36672;50.710;12.498;2023-01-31T15:58:39;98554.31;;;2.38;76.56
49315;BME280;36672;50.710;12.498;2023-01-31T16:01:13;98565.09;;;2.46;76.51